createdAt,value
2019-03-19T00:01:01.052Z,7.90
2019-03-19T00:06:02.702Z,7.90
2019-03-19T00:11:04.418Z,6.60
2019-03-19T00:16:06.628Z,7.00
2019-03-19T00:21:08.340Z,5.90
2019-03-19T00:26:10.025Z,5.43
2019-03-19T00:31:11.725Z,6.73
2019-03-19T00:36:13.321Z,7.87
2019-03-19T00:41:15.239Z,7.07
2019-03-19T00:46:16.843Z,7.60
2019-03-19T00:51:18.483Z,9.03
2019-03-19T00:56:20.182Z,8.67
2019-03-19T01:01:21.834Z,7.57
2019-03-19T01:06:23.556Z,7.20
2019-03-19T01:11:25.249Z,7.10
2019-03-19T01:16:27.839Z,6.43
2019-03-19T01:21:31.819Z,7.33
2019-03-19T01:26:34.031Z,7.30
2019-03-19T01:31:35.828Z,7.73
2019-03-19T01:36:37.613Z,5.93
2019-03-19T01:41:39.511Z,5.90
2019-03-19T01:46:41.274Z,7.90
2019-03-19T01:51:42.987Z,6.80
2019-03-19T01:56:46.591Z,5.00
2019-03-19T02:01:48.809Z,6.27
2019-03-19T02:06:50.998Z,8.43
2019-03-19T02:11:52.892Z,7.60
2019-03-19T02:16:55.715Z,6.37
2019-03-19T02:21:57.489Z,10.17
2019-03-19T02:26:59.189Z,7.73
2019-03-19T02:32:02.844Z,7.60
2019-03-19T02:37:05.314Z,7.63
2019-03-19T02:42:07.207Z,7.67
2019-03-19T02:47:09.035Z,5.83
2019-03-19T02:52:10.762Z,6.13
2019-03-19T02:57:13.059Z,6.00
2019-03-19T03:02:15.568Z,5.73
2019-03-19T03:07:17.321Z,7.23
2019-03-19T03:12:19.090Z,7.13
2019-03-19T03:17:21.152Z,7.53
2019-03-19T03:22:22.914Z,9.07
2019-03-19T03:27:24.554Z,8.90
2019-03-19T03:32:26.354Z,6.77
2019-03-19T03:37:28.024Z,9.27
2019-03-19T03:42:29.674Z,8.17
2019-03-19T03:47:31.544Z,8.50
2019-03-19T03:52:33.305Z,7.37
2019-03-19T03:57:35.192Z,7.07
2019-03-19T04:02:37.532Z,8.43
2019-03-19T04:07:39.285Z,7.60
2019-03-19T04:12:41.039Z,6.73
2019-03-19T04:17:43.344Z,7.70
2019-03-19T04:22:45.510Z,7.60
2019-03-19T04:27:47.487Z,10.60
2019-03-19T04:32:49.287Z,7.93
2019-03-19T04:37:51.129Z,7.80
2019-03-19T04:42:52.938Z,7.73
2019-03-19T04:47:54.746Z,7.80
2019-03-19T04:52:56.741Z,6.50
2019-03-19T04:57:58.781Z,8.07
2019-03-19T05:03:00.603Z,7.90
2019-03-19T05:08:02.603Z,6.73
2019-03-19T05:13:04.542Z,8.10
2019-03-19T05:18:06.410Z,9.27
2019-03-19T05:23:08.529Z,7.80
2019-03-19T05:28:11.061Z,8.70
2019-03-19T05:33:12.851Z,9.40
2019-03-19T05:38:14.654Z,10.07
2019-03-19T05:43:16.422Z,7.40
2019-03-19T05:48:20.541Z,9.10
2019-03-19T05:53:22.726Z,8.73
2019-03-19T05:58:24.456Z,14.43
2019-03-19T06:03:26.600Z,10.03
2019-03-19T06:08:28.297Z,9.57
2019-03-19T06:13:30.027Z,7.50
2019-03-19T06:18:35.273Z,9.00
2019-03-19T06:23:36.115Z,12.63
2019-03-19T06:28:37.819Z,9.50
2019-03-19T06:33:39.619Z,8.43
2019-03-19T06:38:41.225Z,10.77
2019-03-19T06:43:42.920Z,10.37
2019-03-19T06:48:44.515Z,8.37
2019-03-19T06:53:46.533Z,7.83
2019-03-19T06:58:48.233Z,9.67
2019-03-19T07:03:49.935Z,8.53
2019-03-19T07:08:51.636Z,8.53
2019-03-19T07:13:53.338Z,7.80
2019-03-19T07:18:55.040Z,8.80
2019-03-19T07:23:57.265Z,6.53
2019-03-19T07:28:58.955Z,7.93
2019-03-19T07:34:00.657Z,7.90
2019-03-19T07:39:03.882Z,5.03
2019-03-19T07:44:05.562Z,6.47
2019-03-19T07:49:08.623Z,6.37
2019-03-19T07:54:11.139Z,6.60
2019-03-19T07:59:12.840Z,6.23
2019-03-19T08:04:15.138Z,5.43
2019-03-19T08:09:16.838Z,4.73
2019-03-19T08:14:18.550Z,5.50
2019-03-19T08:19:20.239Z,5.67
2019-03-19T08:24:22.283Z,4.90
2019-03-19T08:29:24.163Z,4.00
2019-03-19T08:34:25.965Z,4.70
2019-03-19T08:39:27.707Z,4.67
2019-03-19T08:44:29.729Z,3.70
2019-03-19T08:49:31.783Z,4.70
2019-03-19T08:54:36.556Z,3.97
2019-03-19T08:59:38.259Z,3.20
2019-03-19T09:04:39.959Z,4.23
2019-03-19T09:09:42.074Z,2.33
2019-03-19T09:14:43.700Z,3.47
2019-03-19T09:19:45.417Z,3.13
2019-03-19T09:24:47.560Z,4.00
2019-03-19T09:29:54.450Z,3.27
2019-03-19T09:34:57.426Z,3.60
2019-03-19T09:39:59.233Z,2.90
2019-03-19T09:45:00.968Z,4.30
2019-03-19T09:50:05.802Z,3.37
2019-03-19T09:55:10.037Z,2.97
2019-03-19T10:00:23.121Z,3.27
2019-03-19T10:05:24.859Z,2.70
2019-03-19T10:10:27.427Z,2.80
2019-03-19T10:15:40.629Z,3.50
2019-03-19T10:20:42.546Z,3.50
2019-03-19T10:25:44.146Z,2.90
2019-03-19T10:30:45.833Z,3.43
2019-03-19T10:35:47.538Z,3.60
2019-03-19T10:40:52.119Z,3.20
2019-03-19T10:45:54.284Z,3.43
2019-03-19T10:50:55.863Z,2.73
2019-03-19T11:01:05.814Z,3.40
2019-03-19T11:06:07.407Z,2.37
2019-03-19T11:11:13.340Z,2.70
2019-03-19T11:16:15.099Z,3.33
2019-03-19T11:21:21.179Z,2.80
2019-03-19T11:26:26.178Z,3.07
2019-03-19T11:31:27.953Z,2.27
2019-03-19T11:36:30.158Z,2.87
2019-03-19T11:41:31.896Z,2.70
2019-03-19T11:46:33.956Z,2.43
2019-03-19T11:51:35.687Z,4.17
2019-03-19T11:56:37.444Z,3.60
2019-03-19T12:01:39.551Z,2.70
2019-03-19T12:06:41.663Z,2.40
2019-03-19T12:11:43.386Z,3.00
2019-03-19T12:16:45.315Z,2.50
2019-03-19T12:21:47.441Z,2.30
2019-03-19T12:26:49.775Z,3.57
2019-03-19T12:31:51.593Z,2.60
2019-03-19T12:36:53.934Z,3.37
2019-03-19T12:41:56.079Z,3.10
2019-03-19T12:46:58.033Z,2.40
2019-03-19T12:51:59.754Z,2.40
2019-03-19T12:57:01.502Z,2.70
2019-03-19T13:02:03.748Z,3.00
2019-03-19T13:07:13.352Z,3.03
2019-03-19T13:12:15.597Z,2.50
2019-03-19T13:17:17.335Z,2.40
2019-03-19T13:22:22.064Z,3.10
2019-03-19T13:27:23.657Z,3.60
2019-03-19T13:32:25.445Z,2.07
2019-03-19T13:37:27.994Z,3.37
2019-03-19T13:42:29.595Z,2.40
2019-03-19T13:47:31.439Z,2.20
2019-03-19T13:52:35.131Z,2.67
2019-03-19T13:57:36.838Z,2.73
2019-03-19T14:02:39.041Z,3.00
2019-03-19T14:07:40.717Z,3.00
2019-03-19T14:12:42.333Z,3.50
2019-03-19T14:17:44.074Z,4.00
2019-03-19T14:22:46.158Z,4.10
2019-03-19T14:27:47.905Z,3.20
2019-03-19T14:32:49.697Z,3.50
2019-03-19T14:37:51.822Z,3.67
2019-03-19T14:42:53.604Z,3.67
2019-03-19T14:47:55.381Z,4.10
2019-03-19T14:52:57.328Z,4.13
2019-03-19T14:57:59.134Z,3.50
2019-03-19T15:03:01.144Z,5.10
2019-03-19T15:08:03.023Z,2.80
2019-03-19T15:13:04.781Z,4.10
2019-03-19T15:18:06.497Z,3.23
2019-03-19T15:23:08.857Z,4.33
2019-03-19T15:28:10.744Z,4.10
2019-03-19T15:33:12.584Z,2.87
2019-03-19T15:38:14.817Z,2.83
2019-03-19T15:43:17.566Z,2.47
2019-03-19T15:48:19.586Z,3.40
2019-03-19T15:53:21.214Z,3.83
2019-03-19T15:58:23.037Z,2.77
2019-03-19T16:03:25.134Z,4.20
2019-03-19T16:08:27.203Z,3.63
2019-03-19T16:13:29.422Z,3.10
2019-03-19T16:18:31.576Z,3.03
2019-03-19T16:23:33.448Z,2.50
2019-03-19T16:28:35.228Z,2.73
2019-03-19T16:33:37.002Z,2.67
2019-03-19T16:38:39.100Z,4.03
2019-03-19T16:43:40.801Z,2.30
2019-03-19T16:48:43.048Z,3.00
2019-03-19T16:53:44.829Z,3.00
2019-03-19T16:58:46.574Z,3.73
2019-03-19T17:03:48.645Z,3.20
2019-03-19T17:08:50.492Z,2.57
2019-03-19T17:13:52.228Z,3.80
2019-03-19T17:18:54.529Z,2.80
2019-03-19T17:23:56.954Z,3.70
2019-03-19T17:28:58.746Z,3.23
2019-03-19T17:34:00.439Z,3.17
2019-03-19T17:39:02.672Z,3.57
2019-03-19T17:44:04.400Z,3.13
2019-03-19T17:49:06.123Z,3.23
2019-03-19T17:54:08.495Z,3.00
2019-03-19T17:59:10.387Z,3.77
2019-03-19T18:04:12.154Z,5.23
2019-03-19T18:09:13.933Z,3.43
2019-03-19T18:14:15.812Z,4.40
2019-03-19T18:19:17.606Z,3.60
2019-03-19T18:24:19.799Z,4.30
2019-03-19T18:29:21.549Z,2.87
2019-03-19T18:34:23.381Z,3.27
2019-03-19T18:39:25.303Z,3.37
2019-03-19T18:44:27.005Z,3.50
2019-03-19T18:49:28.926Z,3.17
2019-03-19T18:54:30.837Z,3.67
2019-03-19T18:59:32.994Z,4.27
2019-03-19T19:04:34.918Z,4.60
2019-03-19T19:09:36.663Z,3.50
2019-03-19T19:14:38.461Z,4.43
2019-03-19T19:19:40.759Z,4.30
2019-03-19T19:24:42.936Z,3.50
2019-03-19T19:29:44.828Z,4.30
2019-03-19T19:34:48.595Z,5.37
2019-03-19T19:39:50.415Z,4.50
2019-03-19T19:44:52.393Z,4.00
2019-03-19T19:49:54.144Z,4.70
2019-03-19T19:54:56.440Z,3.47
2019-03-19T19:59:58.238Z,3.60
2019-03-19T20:05:03.436Z,3.47
2019-03-19T20:10:10.290Z,3.53
2019-03-19T20:15:12.269Z,3.67
2019-03-19T20:20:26.030Z,3.47
2019-03-19T20:25:28.211Z,5.57
2019-03-19T20:30:29.957Z,3.33
2019-03-19T20:35:31.731Z,5.20
2019-03-19T20:40:33.555Z,2.47
2019-03-19T20:45:35.298Z,2.90
2019-03-19T20:50:40.448Z,3.90
2019-03-19T20:55:42.363Z,2.60
2019-03-19T21:00:44.335Z,3.60
2019-03-19T21:05:46.416Z,5.20
2019-03-19T21:10:48.742Z,3.70
2019-03-19T21:15:50.601Z,3.72
2019-03-19T21:20:52.709Z,3.80
2019-03-19T21:25:54.477Z,6.33
2019-03-19T21:30:56.331Z,2.93
2019-03-19T21:35:58.057Z,3.23
2019-03-19T21:40:59.993Z,5.13
2019-03-19T21:46:01.778Z,3.27
2019-03-19T21:51:03.587Z,3.10
2019-03-19T21:56:05.587Z,3.30
2019-03-19T22:01:07.390Z,3.30
2019-03-19T22:06:09.186Z,3.00
2019-03-19T22:11:10.969Z,3.33
2019-03-19T22:16:12.762Z,2.77
2019-03-19T22:21:14.693Z,3.50
2019-03-19T22:26:16.467Z,3.60
2019-03-19T22:31:18.238Z,5.23
2019-03-19T22:36:19.984Z,3.47
2019-03-19T22:41:21.951Z,3.17
2019-03-19T22:46:25.057Z,2.57
2019-03-19T22:51:26.857Z,2.80
2019-03-19T22:56:28.651Z,3.20
2019-03-19T23:01:30.463Z,2.40
2019-03-19T23:06:32.251Z,2.10
2019-03-19T23:11:34.410Z,3.03
2019-03-19T23:16:36.677Z,3.00
2019-03-19T23:21:38.877Z,2.47
2019-03-19T23:26:41.172Z,2.60
2019-03-19T23:31:42.914Z,3.03
2019-03-19T23:36:44.736Z,3.23
2019-03-19T23:41:46.530Z,2.30
2019-03-19T23:46:48.315Z,2.77
2019-03-19T23:51:50.032Z,3.37
2019-03-19T23:56:51.797Z,2.80
